sensor_id;sensor_type;location;lat;lon;timestamp;P1;durP1;ratioP1;P2;durP2;ratioP2
46563;SDS011;32291;52.010;4.446;2023-10-19T00:00:30;28.90;;;23.65;;
46563;SDS011;32291;52.010;4.446;2023-10-19T00:01:45;28.15;;;23.52;;
46563;SDS011;32291;52.010;4.446;2023-10-19T00:02:48;25.85;;;22.98;;
46563;SDS011;32291;52.010;4.446;2023-10-19T00:03:53;26.33;;;22.85;;
46563;SDS011;32291;52.010;4.446;2023-10-19T00:04:56;29.20;;;22.90;;
46563;SDS011;32291;52.010;4.446;2023-10-19T00:05:58;26.65;;;22.85;;
46563;SDS011;32291;52.010;4.446;2023-10-19T00:06:59;26.20;;;22.90;;
46563;SDS011;32291;52.010;4.446;2023-10-19T00:08:02;26.65;;;22.95;;
46563;SDS011;32291;52.010;4.446;2023-10-19T00:09:15;26.83;;;23.13;;
46563;SDS011;32291;52.010;4.446;2023-10-19T00:10:17;31.65;;;25.65;;
46563;SDS011;32291;52.010;4.446;2023-10-19T00:11:18;28.55;;;23.85;;
46563;SDS011;32291;52.010;4.446;2023-10-19T00:12:24;27.63;;;23.63;;
46563;SDS011;32291;52.010;4.446;2023-10-19T00:13:25;25.67;;;22.77;;
46563;SDS011;32291;52.010;4.446;2023-10-19T00:14:29;27.52;;;23.60;;
46563;SDS011;32291;52.010;4.446;2023-10-19T00:15:33;26.63;;;23.00;;
46563;SDS011;32291;52.010;4.446;2023-10-19T00:16:43;32.15;;;22.63;;
46563;SDS011;32291;52.010;4.446;2023-10-19T00:17:51;25.35;;;22.58;;
46563;SDS011;32291;52.010;4.446;2023-10-19T00:18:54;24.38;;;21.27;;
46563;SDS011;32291;52.010;4.446;2023-10-19T00:20:00;28.17;;;22.17;;
46563;SDS011;32291;52.010;4.446;2023-10-19T00:21:21;25.45;;;22.27;;
46563;SDS011;32291;52.010;4.446;2023-10-19T00:22:26;25.83;;;22.25;;
46563;SDS011;32291;52.010;4.446;2023-10-19T00:23:31;27.88;;;22.40;;
46563;SDS011;32291;52.010;4.446;2023-10-19T00:24:33;26.92;;;22.50;;
46563;SDS011;32291;52.010;4.446;2023-10-19T00:25:35;30.25;;;23.52;;
46563;SDS011;32291;52.010;4.446;2023-10-19T00:26:42;26.05;;;21.95;;
46563;SDS011;32291;52.010;4.446;2023-10-19T00:27:45;25.73;;;22.58;;
46563;SDS011;32291;52.010;4.446;2023-10-19T00:28:49;28.55;;;22.88;;
46563;SDS011;32291;52.010;4.446;2023-10-19T00:29:53;27.70;;;22.45;;
46563;SDS011;32291;52.010;4.446;2023-10-19T00:31:03;28.45;;;22.73;;
46563;SDS011;32291;52.010;4.446;2023-10-19T00:32:08;26.08;;;23.15;;
46563;SDS011;32291;52.010;4.446;2023-10-19T00:33:15;24.33;;;21.60;;
46563;SDS011;32291;52.010;4.446;2023-10-19T00:34:18;25.45;;;21.40;;
46563;SDS011;32291;52.010;4.446;2023-10-19T00:35:21;25.45;;;21.98;;
46563;SDS011;32291;52.010;4.446;2023-10-19T00:36:34;28.23;;;22.15;;
46563;SDS011;32291;52.010;4.446;2023-10-19T00:37:39;23.58;;;20.85;;
46563;SDS011;32291;52.010;4.446;2023-10-19T00:38:43;23.60;;;20.75;;
46563;SDS011;32291;52.010;4.446;2023-10-19T00:39:50;30.05;;;22.55;;
46563;SDS011;32291;52.010;4.446;2023-10-19T00:40:55;30.67;;;22.25;;
46563;SDS011;32291;52.010;4.446;2023-10-19T00:42:06;28.63;;;22.15;;
46563;SDS011;32291;52.010;4.446;2023-10-19T00:43:08;24.42;;;21.10;;
46563;SDS011;32291;52.010;4.446;2023-10-19T00:44:14;28.58;;;21.85;;
46563;SDS011;32291;52.010;4.446;2023-10-19T00:45:36;27.17;;;22.73;;
46563;SDS011;32291;52.010;4.446;2023-10-19T00:46:40;27.98;;;22.38;;
46563;SDS011;32291;52.010;4.446;2023-10-19T00:47:42;24.00;;;21.15;;
46563;SDS011;32291;52.010;4.446;2023-10-19T00:48:44;25.40;;;21.88;;
46563;SDS011;32291;52.010;4.446;2023-10-19T00:49:50;24.80;;;20.42;;
46563;SDS011;32291;52.010;4.446;2023-10-19T00:50:52;23.98;;;20.85;;
46563;SDS011;32291;52.010;4.446;2023-10-19T00:52:07;23.73;;;20.67;;
46563;SDS011;32291;52.010;4.446;2023-10-19T00:53:12;23.55;;;20.73;;
46563;SDS011;32291;52.010;4.446;2023-10-19T00:54:16;25.40;;;19.98;;
46563;SDS011;32291;52.010;4.446;2023-10-19T00:55:58;24.23;;;20.02;;
46563;SDS011;32291;52.010;4.446;2023-10-19T00:57:01;27.70;;;21.42;;
46563;SDS011;32291;52.010;4.446;2023-10-19T00:58:11;26.05;;;20.85;;
46563;SDS011;32291;52.010;4.446;2023-10-19T00:59:19;25.58;;;20.10;;
46563;SDS011;32291;52.010;4.446;2023-10-19T01:00:20;23.88;;;19.98;;
46563;SDS011;32291;52.010;4.446;2023-10-19T01:01:30;23.70;;;20.27;;
46563;SDS011;32291;52.010;4.446;2023-10-19T01:02:39;22.17;;;19.90;;
46563;SDS011;32291;52.010;4.446;2023-10-19T01:03:46;24.38;;;20.83;;
46563;SDS011;32291;52.010;4.446;2023-10-19T01:04:53;23.52;;;20.90;;
46563;SDS011;32291;52.010;4.446;2023-10-19T01:06:00;24.88;;;20.73;;
46563;SDS011;32291;52.010;4.446;2023-10-19T01:07:05;20.90;;;18.70;;
46563;SDS011;32291;52.010;4.446;2023-10-19T01:08:07;23.05;;;20.38;;
46563;SDS011;32291;52.010;4.446;2023-10-19T01:09:33;23.00;;;20.60;;
46563;SDS011;32291;52.010;4.446;2023-10-19T01:10:39;21.35;;;19.08;;
46563;SDS011;32291;52.010;4.446;2023-10-19T01:11:42;21.63;;;19.27;;
46563;SDS011;32291;52.010;4.446;2023-10-19T01:12:50;26.50;;;20.98;;
46563;SDS011;32291;52.010;4.446;2023-10-19T01:13:52;22.48;;;19.85;;
46563;SDS011;32291;52.010;4.446;2023-10-19T01:16:14;21.92;;;19.20;;
46563;SDS011;32291;52.010;4.446;2023-10-19T01:17:22;23.23;;;20.83;;
46563;SDS011;32291;52.010;4.446;2023-10-19T01:18:26;21.55;;;19.33;;
46563;SDS011;32291;52.010;4.446;2023-10-19T01:19:30;22.77;;;20.48;;
46563;SDS011;32291;52.010;4.446;2023-10-19T01:20:32;22.65;;;20.25;;
46563;SDS011;32291;52.010;4.446;2023-10-19T01:21:48;20.75;;;18.67;;
46563;SDS011;32291;52.010;4.446;2023-10-19T01:22:54;20.92;;;18.95;;
46563;SDS011;32291;52.010;4.446;2023-10-19T01:24:09;22.13;;;19.83;;
46563;SDS011;32291;52.010;4.446;2023-10-19T01:25:17;21.17;;;18.98;;
46563;SDS011;32291;52.010;4.446;2023-10-19T01:26:20;20.13;;;18.13;;
46563;SDS011;32291;52.010;4.446;2023-10-19T01:27:27;19.83;;;17.80;;
46563;SDS011;32291;52.010;4.446;2023-10-19T01:29:53;17.27;;;15.57;;
46563;SDS011;32291;52.010;4.446;2023-10-19T01:31:00;16.48;;;14.75;;
46563;SDS011;32291;52.010;4.446;2023-10-19T01:32:07;14.93;;;13.50;;
46563;SDS011;32291;52.010;4.446;2023-10-19T01:33:15;13.00;;;11.80;;
46563;SDS011;32291;52.010;4.446;2023-10-19T01:34:16;12.35;;;11.15;;
46563;SDS011;32291;52.010;4.446;2023-10-19T01:35:20;10.65;;;9.55;;
46563;SDS011;32291;52.010;4.446;2023-10-19T01:36:22;10.43;;;9.52;;
46563;SDS011;32291;52.010;4.446;2023-10-19T01:37:24;12.23;;;9.20;;
46563;SDS011;32291;52.010;4.446;2023-10-19T01:38:25;9.07;;;8.18;;
46563;SDS011;32291;52.010;4.446;2023-10-19T01:39:32;9.05;;;8.23;;
46563;SDS011;32291;52.010;4.446;2023-10-19T01:40:39;10.07;;;7.50;;
46563;SDS011;32291;52.010;4.446;2023-10-19T01:41:46;9.88;;;6.35;;
46563;SDS011;32291;52.010;4.446;2023-10-19T01:42:51;7.78;;;6.90;;
46563;SDS011;32291;52.010;4.446;2023-10-19T01:43:53;6.10;;;5.50;;
46563;SDS011;32291;52.010;4.446;2023-10-19T01:44:55;6.30;;;5.78;;
46563;SDS011;32291;52.010;4.446;2023-10-19T01:45:57;9.65;;;5.57;;
46563;SDS011;32291;52.010;4.446;2023-10-19T01:47:05;5.75;;;5.07;;
46563;SDS011;32291;52.010;4.446;2023-10-19T01:48:07;5.38;;;4.85;;
46563;SDS011;32291;52.010;4.446;2023-10-19T01:49:09;7.63;;;4.97;;
46563;SDS011;32291;52.010;4.446;2023-10-19T01:50:11;6.60;;;4.65;;
46563;SDS011;32291;52.010;4.446;2023-10-19T01:51:20;8.75;;;4.32;;
46563;SDS011;32291;52.010;4.446;2023-10-19T01:52:24;6.68;;;3.85;;
46563;SDS011;32291;52.010;4.446;2023-10-19T01:53:26;4.13;;;3.70;;
46563;SDS011;32291;52.010;4.446;2023-10-19T01:54:27;8.18;;;4.55;;
46563;SDS011;32291;52.010;4.446;2023-10-19T01:55:29;3.53;;;3.20;;
46563;SDS011;32291;52.010;4.446;2023-10-19T01:56:39;5.07;;;3.53;;
46563;SDS011;32291;52.010;4.446;2023-10-19T01:57:43;5.72;;;3.45;;
46563;SDS011;32291;52.010;4.446;2023-10-19T01:58:46;6.60;;;3.65;;
46563;SDS011;32291;52.010;4.446;2023-10-19T01:59:48;6.80;;;3.88;;
46563;SDS011;32291;52.010;4.446;2023-10-19T02:00:50;4.82;;;3.08;;
46563;SDS011;32291;52.010;4.446;2023-10-19T02:01:56;7.00;;;3.33;;
46563;SDS011;32291;52.010;4.446;2023-10-19T02:02:57;4.57;;;2.92;;
46563;SDS011;32291;52.010;4.446;2023-10-19T02:04:02;6.55;;;2.83;;
46563;SDS011;32291;52.010;4.446;2023-10-19T02:05:06;7.63;;;3.47;;
46563;SDS011;32291;52.010;4.446;2023-10-19T02:06:15;5.18;;;2.83;;
46563;SDS011;32291;52.010;4.446;2023-10-19T02:07:17;7.68;;;3.08;;
46563;SDS011;32291;52.010;4.446;2023-10-19T02:08:19;5.22;;;2.80;;
46563;SDS011;32291;52.010;4.446;2023-10-19T02:09:25;9.27;;;3.45;;
46563;SDS011;32291;52.010;4.446;2023-10-19T02:10:29;6.47;;;2.70;;
46563;SDS011;32291;52.010;4.446;2023-10-19T02:11:32;6.63;;;2.50;;
46563;SDS011;32291;52.010;4.446;2023-10-19T02:12:34;4.20;;;2.50;;
46563;SDS011;32291;52.010;4.446;2023-10-19T02:13:35;5.70;;;2.67;;
46563;SDS011;32291;52.010;4.446;2023-10-19T02:14:40;5.72;;;2.67;;
46563;SDS011;32291;52.010;4.446;2023-10-19T02:15:42;4.45;;;2.05;;
46563;SDS011;32291;52.010;4.446;2023-10-19T02:16:48;8.93;;;2.40;;
46563;SDS011;32291;52.010;4.446;2023-10-19T02:17:55;3.17;;;2.13;;
46563;SDS011;32291;52.010;4.446;2023-10-19T02:19:00;4.50;;;2.67;;
46563;SDS011;32291;52.010;4.446;2023-10-19T02:20:02;5.40;;;2.10;;
46563;SDS011;32291;52.010;4.446;2023-10-19T02:21:14;2.90;;;1.80;;
46563;SDS011;32291;52.010;4.446;2023-10-19T02:22:44;5.57;;;1.92;;
46563;SDS011;32291;52.010;4.446;2023-10-19T02:23:46;4.05;;;2.35;;
46563;SDS011;32291;52.010;4.446;2023-10-19T02:24:49;5.00;;;2.15;;
46563;SDS011;32291;52.010;4.446;2023-10-19T02:25:50;3.42;;;2.10;;
46563;SDS011;32291;52.010;4.446;2023-10-19T02:26:53;5.45;;;2.00;;
46563;SDS011;32291;52.010;4.446;2023-10-19T02:27:56;5.32;;;2.15;;
46563;SDS011;32291;52.010;4.446;2023-10-19T02:28:58;3.97;;;2.10;;
46563;SDS011;32291;52.010;4.446;2023-10-19T02:30:00;5.07;;;2.10;;
46563;SDS011;32291;52.010;4.446;2023-10-19T02:31:03;6.40;;;1.90;;
46563;SDS011;32291;52.010;4.446;2023-10-19T02:32:20;4.55;;;2.00;;
46563;SDS011;32291;52.010;4.446;2023-10-19T02:33:21;3.42;;;1.60;;
46563;SDS011;32291;52.010;4.446;2023-10-19T02:34:23;3.67;;;1.20;;
46563;SDS011;32291;52.010;4.446;2023-10-19T02:35:24;4.03;;;1.65;;
46563;SDS011;32291;52.010;4.446;2023-10-19T02:36:28;7.50;;;1.88;;
46563;SDS011;32291;52.010;4.446;2023-10-19T02:37:31;4.68;;;1.58;;
46563;SDS011;32291;52.010;4.446;2023-10-19T02:38:33;3.55;;;1.60;;
46563;SDS011;32291;52.010;4.446;2023-10-19T02:39:34;2.95;;;1.23;;
46563;SDS011;32291;52.010;4.446;2023-10-19T02:40:36;5.82;;;1.50;;
46563;SDS011;32291;52.010;4.446;2023-10-19T02:41:39;2.50;;;1.20;;
46563;SDS011;32291;52.010;4.446;2023-10-19T02:42:49;2.75;;;1.20;;
46563;SDS011;32291;52.010;4.446;2023-10-19T02:43:54;2.88;;;1.10;;
46563;SDS011;32291;52.010;4.446;2023-10-19T02:45:22;3.28;;;1.38;;
46563;SDS011;32291;52.010;4.446;2023-10-19T02:46:24;3.00;;;1.30;;
46563;SDS011;32291;52.010;4.446;2023-10-19T02:47:26;2.10;;;1.60;;
46563;SDS011;32291;52.010;4.446;2023-10-19T02:48:29;1.83;;;1.20;;
46563;SDS011;32291;52.010;4.446;2023-10-19T02:49:31;2.90;;;1.50;;
46563;SDS011;32291;52.010;4.446;2023-10-19T02:50:36;5.35;;;1.90;;
46563;SDS011;32291;52.010;4.446;2023-10-19T02:51:38;3.03;;;1.30;;
46563;SDS011;32291;52.010;4.446;2023-10-19T02:52:45;3.55;;;1.42;;
46563;SDS011;32291;52.010;4.446;2023-10-19T02:53:46;2.25;;;1.58;;
46563;SDS011;32291;52.010;4.446;2023-10-19T02:54:48;3.22;;;1.33;;
46563;SDS011;32291;52.010;4.446;2023-10-19T02:55:49;3.78;;;1.42;;
46563;SDS011;32291;52.010;4.446;2023-10-19T02:56:53;3.38;;;1.10;;
46563;SDS011;32291;52.010;4.446;2023-10-19T02:57:57;4.78;;;1.30;;
46563;SDS011;32291;52.010;4.446;2023-10-19T02:58:59;5.47;;;1.45;;
46563;SDS011;32291;52.010;4.446;2023-10-19T03:00:07;4.68;;;1.40;;
46563;SDS011;32291;52.010;4.446;2023-10-19T03:01:13;3.70;;;1.30;;
46563;SDS011;32291;52.010;4.446;2023-10-19T03:02:23;3.28;;;1.70;;
46563;SDS011;32291;52.010;4.446;2023-10-19T03:03:26;5.28;;;1.88;;
46563;SDS011;32291;52.010;4.446;2023-10-19T03:04:31;2.95;;;1.30;;
46563;SDS011;32291;52.010;4.446;2023-10-19T03:05:36;3.13;;;1.70;;
46563;SDS011;32291;52.010;4.446;2023-10-19T03:06:37;3.78;;;1.40;;
46563;SDS011;32291;52.010;4.446;2023-10-19T03:07:41;5.25;;;1.55;;
46563;SDS011;32291;52.010;4.446;2023-10-19T03:08:46;3.30;;;1.50;;
46563;SDS011;32291;52.010;4.446;2023-10-19T03:09:48;3.85;;;1.75;;
46563;SDS011;32291;52.010;4.446;2023-10-19T03:10:50;4.25;;;1.50;;
46563;SDS011;32291;52.010;4.446;2023-10-19T03:12:04;3.78;;;1.38;;
46563;SDS011;32291;52.010;4.446;2023-10-19T03:13:14;3.75;;;1.63;;
46563;SDS011;32291;52.010;4.446;2023-10-19T03:14:16;2.83;;;1.30;;
46563;SDS011;32291;52.010;4.446;2023-10-19T03:15:18;3.20;;;1.27;;
46563;SDS011;32291;52.010;4.446;2023-10-19T03:16:21;6.15;;;1.50;;
46563;SDS011;32291;52.010;4.446;2023-10-19T03:17:31;5.13;;;1.42;;
46563;SDS011;32291;52.010;4.446;2023-10-19T03:18:33;4.00;;;1.23;;
46563;SDS011;32291;52.010;4.446;2023-10-19T03:19:35;3.53;;;1.20;;
46563;SDS011;32291;52.010;4.446;2023-10-19T03:20:37;4.13;;;1.45;;
46563;SDS011;32291;52.010;4.446;2023-10-19T03:21:38;3.83;;;1.35;;
46563;SDS011;32291;52.010;4.446;2023-10-19T03:22:43;2.80;;;1.30;;
46563;SDS011;32291;52.010;4.446;2023-10-19T03:23:46;4.88;;;1.70;;
46563;SDS011;32291;52.010;4.446;2023-10-19T03:24:48;3.88;;;1.38;;
46563;SDS011;32291;52.010;4.446;2023-10-19T03:25:59;5.90;;;1.73;;
46563;SDS011;32291;52.010;4.446;2023-10-19T03:27:39;1.73;;;1.30;;
46563;SDS011;32291;52.010;4.446;2023-10-19T03:28:45;3.10;;;1.40;;
46563;SDS011;32291;52.010;4.446;2023-10-19T03:29:46;5.70;;;1.27;;
46563;SDS011;32291;52.010;4.446;2023-10-19T03:30:54;4.35;;;1.85;;
46563;SDS011;32291;52.010;4.446;2023-10-19T03:31:55;5.78;;;1.50;;
46563;SDS011;32291;52.010;4.446;2023-10-19T03:32:57;2.05;;;1.35;;
46563;SDS011;32291;52.010;4.446;2023-10-19T03:34:00;2.95;;;1.40;;
46563;SDS011;32291;52.010;4.446;2023-10-19T03:35:05;4.28;;;2.10;;
46563;SDS011;32291;52.010;4.446;2023-10-19T03:36:07;3.20;;;1.30;;
46563;SDS011;32291;52.010;4.446;2023-10-19T03:37:13;2.95;;;1.35;;
46563;SDS011;32291;52.010;4.446;2023-10-19T03:38:15;5.43;;;1.55;;
46563;SDS011;32291;52.010;4.446;2023-10-19T03:39:17;2.97;;;1.35;;
46563;SDS011;32291;52.010;4.446;2023-10-19T03:40:19;3.85;;;1.20;;
46563;SDS011;32291;52.010;4.446;2023-10-19T03:41:30;5.00;;;1.45;;
46563;SDS011;32291;52.010;4.446;2023-10-19T03:42:36;5.07;;;1.80;;
46563;SDS011;32291;52.010;4.446;2023-10-19T03:43:51;3.30;;;1.55;;
46563;SDS011;32291;52.010;4.446;2023-10-19T03:44:55;4.57;;;1.20;;
46563;SDS011;32291;52.010;4.446;2023-10-19T03:45:58;4.82;;;1.63;;
46563;SDS011;32291;52.010;4.446;2023-10-19T03:47:04;3.78;;;1.20;;
46563;SDS011;32291;52.010;4.446;2023-10-19T03:48:06;4.05;;;1.25;;
46563;SDS011;32291;52.010;4.446;2023-10-19T03:49:09;6.40;;;1.63;;
46563;SDS011;32291;52.010;4.446;2023-10-19T03:50:14;2.58;;;1.20;;
46563;SDS011;32291;52.010;4.446;2023-10-19T03:51:20;4.05;;;1.85;;
46563;SDS011;32291;52.010;4.446;2023-10-19T03:52:25;3.75;;;1.40;;
46563;SDS011;32291;52.010;4.446;2023-10-19T03:53:30;5.05;;;1.50;;
46563;SDS011;32291;52.010;4.446;2023-10-19T03:54:33;6.75;;;1.40;;
46563;SDS011;32291;52.010;4.446;2023-10-19T03:55:39;5.57;;;1.65;;
46563;SDS011;32291;52.010;4.446;2023-10-19T03:56:43;6.10;;;1.55;;
46563;SDS011;32291;52.010;4.446;2023-10-19T03:57:45;5.65;;;1.33;;
46563;SDS011;32291;52.010;4.446;2023-10-19T03:58:48;2.85;;;1.00;;
46563;SDS011;32291;52.010;4.446;2023-10-19T03:59:51;8.18;;;1.58;;
46563;SDS011;32291;52.010;4.446;2023-10-19T04:00:57;5.57;;;1.33;;
46563;SDS011;32291;52.010;4.446;2023-10-19T04:02:02;3.30;;;1.30;;
46563;SDS011;32291;52.010;4.446;2023-10-19T04:03:10;7.22;;;1.73;;
46563;SDS011;32291;52.010;4.446;2023-10-19T04:04:12;3.17;;;1.63;;
46563;SDS011;32291;52.010;4.446;2023-10-19T04:05:17;6.72;;;1.33;;
46563;SDS011;32291;52.010;4.446;2023-10-19T04:06:22;5.85;;;1.45;;
46563;SDS011;32291;52.010;4.446;2023-10-19T04:07:23;2.97;;;1.10;;
46563;SDS011;32291;52.010;4.446;2023-10-19T04:08:26;3.75;;;1.13;;
46563;SDS011;32291;52.010;4.446;2023-10-19T04:09:27;4.70;;;1.80;;
46563;SDS011;32291;52.010;4.446;2023-10-19T04:10:29;6.80;;;1.77;;
46563;SDS011;32291;52.010;4.446;2023-10-19T04:11:39;4.72;;;1.60;;
46563;SDS011;32291;52.010;4.446;2023-10-19T04:12:50;6.25;;;1.70;;
46563;SDS011;32291;52.010;4.446;2023-10-19T04:13:51;4.32;;;1.52;;
46563;SDS011;32291;52.010;4.446;2023-10-19T04:14:54;6.30;;;2.17;;
46563;SDS011;32291;52.010;4.446;2023-10-19T04:15:57;5.82;;;1.30;;
46563;SDS011;32291;52.010;4.446;2023-10-19T04:16:58;3.83;;;1.60;;
46563;SDS011;32291;52.010;4.446;2023-10-19T04:17:59;7.03;;;1.50;;
46563;SDS011;32291;52.010;4.446;2023-10-19T04:19:01;3.40;;;1.20;;
46563;SDS011;32291;52.010;4.446;2023-10-19T04:20:05;5.68;;;1.60;;
46563;SDS011;32291;52.010;4.446;2023-10-19T04:21:19;6.55;;;1.55;;
46563;SDS011;32291;52.010;4.446;2023-10-19T04:22:21;3.90;;;1.40;;
46563;SDS011;32291;52.010;4.446;2023-10-19T04:23:23;4.40;;;1.60;;
46563;SDS011;32291;52.010;4.446;2023-10-19T04:24:28;3.08;;;1.20;;
46563;SDS011;32291;52.010;4.446;2023-10-19T04:25:33;5.43;;;1.52;;
46563;SDS011;32291;52.010;4.446;2023-10-19T04:26:35;4.22;;;1.40;;
46563;SDS011;32291;52.010;4.446;2023-10-19T04:27:40;6.18;;;1.40;;
46563;SDS011;32291;52.010;4.446;2023-10-19T04:28:42;4.45;;;2.03;;
46563;SDS011;32291;52.010;4.446;2023-10-19T04:29:50;2.83;;;1.00;;
46563;SDS011;32291;52.010;4.446;2023-10-19T04:30:52;3.65;;;1.17;;
46563;SDS011;32291;52.010;4.446;2023-10-19T04:31:54;4.38;;;1.63;;
46563;SDS011;32291;52.010;4.446;2023-10-19T04:32:56;5.78;;;1.30;;
46563;SDS011;32291;52.010;4.446;2023-10-19T04:33:58;4.80;;;1.40;;
46563;SDS011;32291;52.010;4.446;2023-10-19T04:34:59;4.80;;;1.48;;
46563;SDS011;32291;52.010;4.446;2023-10-19T04:36:00;3.63;;;1.65;;
46563;SDS011;32291;52.010;4.446;2023-10-19T04:37:02;4.05;;;1.63;;
46563;SDS011;32291;52.010;4.446;2023-10-19T04:38:04;3.10;;;1.38;;
46563;SDS011;32291;52.010;4.446;2023-10-19T04:39:08;4.60;;;1.65;;
46563;SDS011;32291;52.010;4.446;2023-10-19T04:40:14;4.60;;;1.55;;
46563;SDS011;32291;52.010;4.446;2023-10-19T04:41:15;5.97;;;1.65;;
46563;SDS011;32291;52.010;4.446;2023-10-19T04:42:17;3.75;;;1.60;;
46563;SDS011;32291;52.010;4.446;2023-10-19T04:43:20;4.10;;;1.40;;
46563;SDS011;32291;52.010;4.446;2023-10-19T04:44:22;6.18;;;1.73;;
46563;SDS011;32291;52.010;4.446;2023-10-19T04:45:23;7.32;;;1.60;;
46563;SDS011;32291;52.010;4.446;2023-10-19T04:46:25;10.35;;;2.00;;
46563;SDS011;32291;52.010;4.446;2023-10-19T04:47:26;3.85;;;1.42;;
46563;SDS011;32291;52.010;4.446;2023-10-19T04:48:28;3.72;;;1.33;;
46563;SDS011;32291;52.010;4.446;2023-10-19T04:49:32;5.57;;;1.50;;
46563;SDS011;32291;52.010;4.446;2023-10-19T04:50:33;4.85;;;1.73;;
46563;SDS011;32291;52.010;4.446;2023-10-19T04:51:34;3.58;;;1.60;;
46563;SDS011;32291;52.010;4.446;2023-10-19T04:52:39;5.15;;;1.35;;
46563;SDS011;32291;52.010;4.446;2023-10-19T04:53:41;4.97;;;1.40;;
46563;SDS011;32291;52.010;4.446;2023-10-19T04:54:42;3.35;;;1.17;;
46563;SDS011;32291;52.010;4.446;2023-10-19T04:55:45;3.70;;;1.20;;
46563;SDS011;32291;52.010;4.446;2023-10-19T04:56:46;3.20;;;1.30;;
46563;SDS011;32291;52.010;4.446;2023-10-19T04:57:48;5.85;;;1.30;;
46563;SDS011;32291;52.010;4.446;2023-10-19T04:58:50;4.07;;;1.45;;
46563;SDS011;32291;52.010;4.446;2023-10-19T04:59:51;2.97;;;1.23;;
46563;SDS011;32291;52.010;4.446;2023-10-19T05:00:53;6.18;;;1.52;;
46563;SDS011;32291;52.010;4.446;2023-10-19T05:01:55;5.28;;;1.15;;
46563;SDS011;32291;52.010;4.446;2023-10-19T05:02:56;4.00;;;1.42;;
46563;SDS011;32291;52.010;4.446;2023-10-19T05:03:58;2.42;;;1.05;;
46563;SDS011;32291;52.010;4.446;2023-10-19T05:04:59;5.72;;;1.33;;
46563;SDS011;32291;52.010;4.446;2023-10-19T05:06:01;5.78;;;1.60;;
46563;SDS011;32291;52.010;4.446;2023-10-19T05:07:02;4.93;;;1.77;;
46563;SDS011;32291;52.010;4.446;2023-10-19T05:08:04;4.53;;;1.30;;
46563;SDS011;32291;52.010;4.446;2023-10-19T05:09:06;3.25;;;1.45;;
46563;SDS011;32291;52.010;4.446;2023-10-19T05:10:08;4.38;;;1.20;;
46563;SDS011;32291;52.010;4.446;2023-10-19T05:11:10;4.20;;;1.40;;
46563;SDS011;32291;52.010;4.446;2023-10-19T05:12:14;5.00;;;1.33;;
46563;SDS011;32291;52.010;4.446;2023-10-19T05:13:16;4.20;;;1.38;;
46563;SDS011;32291;52.010;4.446;2023-10-19T05:14:17;10.18;;;1.88;;
46563;SDS011;32291;52.010;4.446;2023-10-19T05:15:20;4.53;;;1.35;;
46563;SDS011;32291;52.010;4.446;2023-10-19T05:16:22;2.63;;;1.30;;
46563;SDS011;32291;52.010;4.446;2023-10-19T05:17:23;5.43;;;1.25;;
46563;SDS011;32291;52.010;4.446;2023-10-19T05:18:25;5.55;;;1.30;;
46563;SDS011;32291;52.010;4.446;2023-10-19T05:19:27;3.80;;;0.90;;
46563;SDS011;32291;52.010;4.446;2023-10-19T05:20:28;8.90;;;1.60;;
46563;SDS011;32291;52.010;4.446;2023-10-19T05:21:31;5.07;;;1.50;;
46563;SDS011;32291;52.010;4.446;2023-10-19T05:22:34;4.43;;;1.75;;
46563;SDS011;32291;52.010;4.446;2023-10-19T05:23:35;3.25;;;1.10;;
46563;SDS011;32291;52.010;4.446;2023-10-19T05:24:38;6.07;;;1.70;;
46563;SDS011;32291;52.010;4.446;2023-10-19T05:25:39;6.85;;;1.70;;
46563;SDS011;32291;52.010;4.446;2023-10-19T05:26:41;2.78;;;1.17;;
46563;SDS011;32291;52.010;4.446;2023-10-19T05:27:42;3.40;;;1.55;;
46563;SDS011;32291;52.010;4.446;2023-10-19T05:28:46;4.72;;;1.60;;
46563;SDS011;32291;52.010;4.446;2023-10-19T05:29:48;5.68;;;1.17;;
46563;SDS011;32291;52.010;4.446;2023-10-19T05:30:49;3.15;;;1.10;;
46563;SDS011;32291;52.010;4.446;2023-10-19T05:31:51;2.67;;;1.40;;
46563;SDS011;32291;52.010;4.446;2023-10-19T05:32:54;4.13;;;1.40;;
46563;SDS011;32291;52.010;4.446;2023-10-19T05:33:56;4.05;;;1.58;;
46563;SDS011;32291;52.010;4.446;2023-10-19T05:34:57;3.47;;;1.08;;
46563;SDS011;32291;52.010;4.446;2023-10-19T05:35:59;2.95;;;1.05;;
46563;SDS011;32291;52.010;4.446;2023-10-19T05:37:01;4.88;;;1.38;;
46563;SDS011;32291;52.010;4.446;2023-10-19T05:38:08;4.80;;;1.38;;
46563;SDS011;32291;52.010;4.446;2023-10-19T05:39:10;4.75;;;1.90;;
46563;SDS011;32291;52.010;4.446;2023-10-19T05:40:11;3.75;;;1.35;;
46563;SDS011;32291;52.010;4.446;2023-10-19T05:41:15;7.05;;;1.25;;
46563;SDS011;32291;52.010;4.446;2023-10-19T05:42:19;4.55;;;1.67;;
46563;SDS011;32291;52.010;4.446;2023-10-19T05:43:22;7.05;;;1.55;;
46563;SDS011;32291;52.010;4.446;2023-10-19T05:44:24;9.63;;;1.55;;
46563;SDS011;32291;52.010;4.446;2023-10-19T05:45:25;1.75;;;0.88;;
46563;SDS011;32291;52.010;4.446;2023-10-19T05:46:29;4.57;;;1.20;;
46563;SDS011;32291;52.010;4.446;2023-10-19T05:47:30;6.88;;;2.08;;
46563;SDS011;32291;52.010;4.446;2023-10-19T05:48:31;5.25;;;1.33;;
46563;SDS011;32291;52.010;4.446;2023-10-19T05:49:33;7.45;;;1.80;;
46563;SDS011;32291;52.010;4.446;2023-10-19T05:50:35;5.70;;;1.60;;
46563;SDS011;32291;52.010;4.446;2023-10-19T05:51:38;5.40;;;1.63;;
46563;SDS011;32291;52.010;4.446;2023-10-19T05:52:40;4.50;;;1.17;;
46563;SDS011;32291;52.010;4.446;2023-10-19T05:53:43;4.20;;;1.25;;
46563;SDS011;32291;52.010;4.446;2023-10-19T05:54:45;7.60;;;1.55;;
46563;SDS011;32291;52.010;4.446;2023-10-19T05:55:46;3.35;;;1.60;;
46563;SDS011;32291;52.010;4.446;2023-10-19T05:56:48;8.02;;;1.80;;
46563;SDS011;32291;52.010;4.446;2023-10-19T05:57:50;6.85;;;1.52;;
46563;SDS011;32291;52.010;4.446;2023-10-19T05:58:52;6.00;;;1.52;;
46563;SDS011;32291;52.010;4.446;2023-10-19T05:59:54;3.08;;;1.48;;
46563;SDS011;32291;52.010;4.446;2023-10-19T06:00:58;6.82;;;1.58;;
46563;SDS011;32291;52.010;4.446;2023-10-19T06:02:00;3.50;;;1.10;;
46563;SDS011;32291;52.010;4.446;2023-10-19T06:03:01;4.78;;;1.08;;
46563;SDS011;32291;52.010;4.446;2023-10-19T06:04:03;6.57;;;2.47;;
46563;SDS011;32291;52.010;4.446;2023-10-19T06:05:06;6.28;;;1.60;;
46563;SDS011;32291;52.010;4.446;2023-10-19T06:06:07;4.75;;;1.73;;
46563;SDS011;32291;52.010;4.446;2023-10-19T06:07:09;6.13;;;1.90;;
46563;SDS011;32291;52.010;4.446;2023-10-19T06:08:10;8.60;;;2.00;;
46563;SDS011;32291;52.010;4.446;2023-10-19T06:09:14;3.22;;;1.25;;
46563;SDS011;32291;52.010;4.446;2023-10-19T06:10:17;5.30;;;1.92;;
46563;SDS011;32291;52.010;4.446;2023-10-19T06:11:21;3.90;;;1.65;;
46563;SDS011;32291;52.010;4.446;2023-10-19T06:12:23;2.20;;;1.25;;
46563;SDS011;32291;52.010;4.446;2023-10-19T06:13:25;4.10;;;1.70;;
46563;SDS011;32291;52.010;4.446;2023-10-19T06:14:26;7.78;;;1.77;;
46563;SDS011;32291;52.010;4.446;2023-10-19T06:15:30;5.40;;;1.95;;
46563;SDS011;32291;52.010;4.446;2023-10-19T06:16:33;3.80;;;1.65;;
46563;SDS011;32291;52.010;4.446;2023-10-19T06:17:35;8.30;;;2.28;;
46563;SDS011;32291;52.010;4.446;2023-10-19T06:18:36;6.95;;;2.33;;
46563;SDS011;32291;52.010;4.446;2023-10-19T06:19:37;7.47;;;1.45;;
46563;SDS011;32291;52.010;4.446;2023-10-19T06:20:45;6.20;;;1.58;;
46563;SDS011;32291;52.010;4.446;2023-10-19T06:21:47;3.95;;;1.60;;
46563;SDS011;32291;52.010;4.446;2023-10-19T06:22:52;5.68;;;1.73;;
46563;SDS011;32291;52.010;4.446;2023-10-19T06:23:56;6.05;;;1.40;;
46563;SDS011;32291;52.010;4.446;2023-10-19T06:24:58;5.18;;;2.15;;
46563;SDS011;32291;52.010;4.446;2023-10-19T06:26:00;3.15;;;1.30;;
46563;SDS011;32291;52.010;4.446;2023-10-19T06:27:12;7.57;;;2.00;;